Weather observations for the past three days for
Sacramento Executive Airport
Imperial (Metric)
Date Time (pdt) Wind (mph) Vis. (mi.) Weather Sky Cond. Temperature (ºF) Relative Humidity Wind Chill (°F) Heat Index (°F) Pressure Precipitation (in)
Air Dwpt 6 hour altimeter (in) sea level (mb) 1 hr 3 hr 6 hr
Max. Min.
09 01:53 SE 3 10.00 Fair CLR 57.9 52 81% 29.94 1013.9
09 00:53 SE 3 10.00 Fair CLR 57.9 52 81% 29.95 1014.1
08 23:53 S 5 10.00 Fair CLR 59 53.1 81% 29.94 1013.9
08 22:53 SW 7 10.00 Fair CLR 60.1 53.1 82.9 60.1 78% 29.94 1013.9
08 21:53 SW 3 10.00 Fair CLR 63 54 73% 29.94 1013.8
08 20:53 SW 7 10.00 Fair CLR 66 55 68% 29.93 1013.4
08 19:53 SW 9 10.00 Fair CLR 70 57 64% 29.92 1013.1
08 18:53 SW 9 10.00 Fair CLR 75.9 60.1 58% 78 29.91 1012.9
08 17:53 SW 10 10.00 Fair CLR 80.1 60.1 51% 81 29.93 1013.3
08 16:53 SW 10 10.00 Fair CLR 82.9 61 84 68 48% 83 29.93 1013.5
08 15:53 Vrbl 5 10.00 Fair CLR 82.9 59 44% 83 29.95 1014.2
08 14:53 Vrbl 5 10.00 Fair CLR 81 59 47% 81 29.98 1015.1
08 13:53 W 6 10.00 Fair CLR 80.1 57.9 47% 81 30 1015.9
08 12:53 Calm 10.00 Fair CLR 75.9 57 52% 78 30.02 1016.5
08 11:53 SW 6 10.00 Fair CLR 72 55 55% 30.04 1017.1
08 10:53 Vrbl 7 10.00 Fair CLR 68 54 68 52 61% 30.05 1017.5
08 09:53 Vrbl 6 10.00 Fair CLR 64 53.1 68% 30.05 1017.5
08 08:53 S 7 10.00 Fair CLR 59 53.1 81% 30.05 1017.5
08 07:53 Vrbl 5 10.00 Overcast OVC006 54 51.1 90% 30.05 1017.4
08 06:53 S 7 10.00 Mostly Cloudy BKN007 53.1 51.1 93% 30.03 1016.8
08 05:53 S 7 10.00 Overcast OVC007 52 50 93% 30.02 1016.5
08 04:53 S 5 10.00 Fair CLR 53.1 51.1 59 53.1 93% 30.01 1016.3
08 03:53 SE 3 10.00 Fair CLR 53.1 52 96% 30.01 1016.1
08 02:53 Calm 10.00 Fair CLR 54 52 93% 30.01 1016.0
08 01:53 Vrbl 3 10.00 Fair CLR 54 52 93% 30 1015.7
08 00:53 S 6 10.00 Fair CLR 55.9 52 87% 30 1015.9
07 23:53 Calm 10.00 Fair CLR 57 53.1 87% 29.99 1015.5
07 22:53 S 7 10.00 Fair CLR 59 54 82.9 59 83% 29.98 1015.2
07 21:53 SW 7 10.00 Fair CLR 61 55 81% 29.98 1015.3
07 20:53 S 5 10.00 Fair CLR 63 55.9 78% 29.97 1014.8
07 19:53 S 8 G 18 10.00 Fair CLR 68 57 68% 29.95 1014.2
07 18:53 SW 10 10.00 Fair CLR 75.9 60.1 58% 78 29.94 1013.9
07 17:53 SW 9 10.00 Fair CLR 81 61 51% 82 29.95 1014.0
07 16:53 Vrbl 5 10.00 Fair CLR 82.9 60.1 82.9 68 46% 83 29.95 1014.2
07 15:53 Vrbl 7 10.00 Fair CLR 82 60.1 47% 82 29.97 1014.9
07 14:53 Vrbl 6 10.00 Fair CLR 81 59 47% 81 30 1015.9
07 13:53 W 6 10.00 Fair CLR 80.1 60.1 51% 81 30.02 1016.7
07 12:53 W 8 10.00 Fair CLR 77 59 54% 79 30.04 1017.3
07 11:53 W 6 10.00 Fair CLR 73 59 62% 30.07 1018.0
07 10:53 SW 3 10.00 Fair CLR 68 57 69.1 54 68% 30.08 1018.4
07 09:53 SW 6 10.00 Fair CLR 63 55 76% 30.09 1018.7
07 08:53 SW 5 10.00 Overcast OVC006 57 54 90% 30.09 1018.8
07 07:53 Vrbl 3 10.00 Overcast OVC005 55 53.1 93% 30.09 1018.8
07 06:53 S 5 10.00 Overcast OVC005 54 52 93% 30.07 1018.4
07 05:53 S 6 10.00 Overcast OVC006 55 53.1 93% 30.06 1017.9
07 04:53 Vrbl 7 10.00 Overcast OVC007 55 53.1 60.1 55 93% 30.06 1017.8
07 03:53 SE 3 10.00 Partly Cloudy SCT008 55 53.1 93% 30.05 1017.6
07 02:53 S 6 10.00 Fair CLR 55.9 53.1 90% 30.05 1017.6
07 01:53 S 5 10.00 Fair CLR 57 53.1 87% 30.06 1017.8
07 00:53 S 5 10.00 Fair CLR 57 53.1 87% 30.06 1017.7
06 23:53 S 6 10.00 Fair CLR 57.9 53.1 84% 30.06 1017.7
06 22:53 SW 6 10.00 Fair CLR 60.1 53.1 75.9 60.1 78% 30.05 1017.5
06 21:53 SW 10 G 18 10.00 Fair CLR 62.1 54 75% 30.04 1017.3
06 20:53 SW 9 10.00 Fair CLR 64.9 55 70% 30.03 1016.9
06 19:53 SW 8 10.00 Fair CLR 70 57.9 66% 30.02 1016.6
06 18:53 Calm 10.00 Fair CLR 75 55.9 52% 78 30.02 1016.3
06 17:53 Vrbl 3 10.00 Fair CLR 75 55 50% 78 30.02 1016.4
06 16:53 Vrbl 5 10.00 Fair CLR 75 55 75.9 66 50% 78 30.03 1016.7
06 15:53 W 8 10.00 Fair CLR 75 54 48% 78 30.04 1017.3
06 14:53 Vrbl 3 10.00 Fair CLR 73 53.1 50% 30.07 1018.2
06 13:53 Calm 10.00 Partly Cloudy SCT042 71.1 52 51% 30.09 1018.9
06 12:53 Vrbl 3 10.00 Overcast OVC041 70 51.1 51% 30.11 1019.5
06 11:53 Vrbl 3 10.00 Overcast OVC045 70 53.1 55% 30.13 1020.2
06 10:53 SW 5 10.00 Overcast OVC046 66.9 53.1 66.9 57 61% 30.14 1020.5
06 09:53 SW 3 10.00 Overcast OVC046 62.1 53.1 73% 30.13 1020.4
06 08:53 Vrbl 3 10.00 Overcast OVC047 60.1 53.1 78% 30.14 1020.4
06 07:53 S 3 10.00 Overcast OVC048 59 51.1 75% 30.13 1020.2
06 06:53 Calm 10.00 Overcast OVC049 57 51.1 81% 30.12 1019.7
06 05:53 Calm 10.00 Overcast OVC050 57 51.1 81% 30.11 1019.5
06 04:53 Calm 10.00 Overcast OVC050 57 52 59 57 83% 30.1 1019.1
06 03:53 S 5 10.00 Overcast OVC050 57 52 83% 30.08 1018.6
06 02:53 S 5 10.00 Overcast OVC050 57 51.1 81% 30.07 1018.3
Date Time (pdt) Wind (mph) Vis. (mi.) Weather Sky Cond. Air Dwpt Max. Min. Relative Humidity Wind Chill (°F) Heat Index (°F) altimeter (in) sea level (mb) 1 hr 3 hr 6 hr
6 hour
Temperature (ºF) Pressure Precipitation (in)